createdAt,value
2023-02-16T00:07:21.753Z,25.80
2023-02-16T00:27:21.473Z,20.00
2023-02-16T00:47:21.233Z,29.80
2023-02-16T01:07:20.929Z,23.60
2023-02-16T01:27:20.687Z,22.60
2023-02-16T01:47:20.450Z,22.60
2023-02-16T02:21:30.205Z,21.60
2023-02-16T02:41:29.896Z,34.40
2023-02-16T03:01:29.695Z,23.90
2023-02-16T03:21:29.371Z,29.20
2023-02-16T03:41:29.115Z,27.80
2023-02-16T04:01:28.844Z,31.40
2023-02-16T04:21:28.583Z,31.80
2023-02-16T05:15:28.210Z,20.70
2023-02-16T05:35:27.844Z,49.90
2023-02-16T05:55:27.594Z,31.80
2023-02-16T06:15:27.305Z,32.00
2023-02-16T06:35:27.066Z,27.20
2023-02-16T06:55:26.807Z,32.70
2023-02-16T07:15:26.511Z,41.20
2023-02-16T07:35:26.264Z,32.60
2023-02-16T07:55:25.963Z,36.00
2023-02-16T08:15:25.770Z,41.90
2023-02-16T08:35:25.440Z,45.90
2023-02-16T08:55:25.158Z,36.20
2023-02-16T09:15:24.899Z,39.00
2023-02-16T09:35:24.624Z,53.60
2023-02-16T09:55:24.386Z,38.80
2023-02-16T10:15:24.141Z,50.50
2023-02-16T10:35:23.835Z,36.90
2023-02-16T10:55:23.597Z,35.40
2023-02-16T11:15:23.307Z,29.70
2023-02-16T11:35:23.053Z,38.00
2023-02-16T11:55:22.781Z,38.10
2023-02-16T12:15:22.496Z,33.40
2023-02-16T12:35:22.253Z,49.20
2023-02-16T12:55:21.957Z,45.60
2023-02-16T13:15:21.704Z,38.50
2023-02-16T13:35:21.420Z,45.60
2023-02-16T13:55:21.193Z,57.90
2023-02-16T14:15:20.917Z,48.70
2023-02-16T14:35:20.617Z,33.50
2023-02-16T14:55:20.321Z,67.60
2023-02-16T15:15:20.058Z,61.40
2023-02-16T15:35:19.784Z,42.00
2023-02-16T15:55:19.556Z,43.90
2023-02-16T16:15:19.237Z,51.00
2023-02-16T16:35:18.973Z,54.30
2023-02-16T16:55:18.748Z,53.90
2023-02-16T17:15:18.443Z,48.00
2023-02-16T17:35:18.168Z,47.20
2023-02-16T17:55:17.908Z,42.10
2023-02-16T18:15:17.642Z,53.40
2023-02-16T18:35:17.368Z,56.50
2023-02-16T18:55:17.125Z,69.00
2023-02-16T19:22:32.540Z,64.30
2023-02-16T19:42:32.267Z,67.90
2023-02-16T20:02:32.038Z,60.20
2023-02-16T20:22:31.735Z,65.70
2023-02-16T20:42:31.485Z,64.60
2023-02-16T21:02:31.181Z,79.10
2023-02-16T21:22:30.909Z,98.00
2023-02-16T21:42:30.642Z,91.80
2023-02-16T22:02:30.424Z,83.30
2023-02-16T22:22:30.093Z,59.90
2023-02-16T22:42:29.822Z,68.30
2023-02-16T23:02:29.548Z,64.40
2023-02-16T23:22:29.286Z,74.70
2023-02-16T23:42:29.006Z,49.60
